Hlavní strana
METAR-TAF:

METAR-TAF

Letiště :

Letiště Tbilisi

Tbilisi, Gruzie

zeměpisná šířka: 41-40-09N, zeměpisná délka: 044-57-17E, výška: 495 m

Aktuální stav počasí

Zpráva byla vytvořena před 19 minutami, v 13:30 UTC
Severozápadní vítr 16 kt
Teplota 8°C
Vlhkost vzduchu 61%
Tlak 1020 hPa
Viditelnost 10 km a více
Žádná oblačnost pod 1500 m, nevyskytují se cumulonimby.

METAR: UGTB 251330Z 32016KT CAVOK 08/01 Q1020 NOSIG

Čas: 17:49 (13:49 UTC)

Předpověď počasí

Zpráva byla vytvořena před 2 hodinami a 49 minutami, v 11:00 UTC
Předpověď platná od 25 v 12 UTC do 26 v 12 UTC
Severozápadní vítr 17 kt
Viditelnost 10 km a více
Žádná oblačnost pod 1500 m, nevyskytují se cumulonimby.

TAF: UGTB 251100Z 2512/2612 32017KT CAVOK TX09/2512Z TN01/2603Z

Stav a předpovědi počasí z více než 4 000 letišť (zprávy METAR a TAF).

Červené a žluté tečky na mapě představují dostupné meteorologické stanice.

Když kurzor umístíte na tečku, zobrazí se název stanice.

Pak kliknutím zobrazíte stav a předpověď počasí.

Chcete-li změnit mapu, kliknutím na zelené tlačítko se znaménkem +mapu přiblížíte, kliknutím na zelené tlačítko se znaménkem – mapu oddálíte a kliknutím na zelené šipky přejdete na sousední mapy.


METAR-TAF: